Time;durP1;ratioP1;P1;durP2;ratioP2;P2;SDS_P1;SDS_P2;PMS_P1;PMS_P2;Temp;Humidity;BMP_temperature;BMP_pressure;BME280_temperature;BME280_humidity;BME280_pressure;Samples;Min_cycle;Max_cycle;Signal;HPM_P1;HPM_P2
2021/07/11 00:00:34;;;;;;;;;;;;;;;26.38;46.54;100977.88;5046769;28;617;-71
2021/07/11 00:03:19;;;;;;;;;;;;;;;26.37;46.10;100970.81;5046948;28;1366;-71
2021/07/11 00:06:05;;;;;;;;;;;;;;;26.38;47.17;100977.88;5046800;28;1059;-71
2021/07/11 00:08:50;;;;;;;;;;;;;;;26.36;45.56;100979.81;5047458;28;1365;-71
2021/07/11 00:11:35;;;;;;;;;;;;;;;26.39;46.69;100981.34;5060155;28;1084;-71
2021/07/11 00:14:21;;;;;;;;;;;;;;;26.39;46.38;100984.88;5048514;28;1280;-71
2021/07/11 00:17:07;;;;;;;;;;;;;;;26.35;45.81;100986.13;5047113;28;1083;-71
2021/07/11 00:19:55;;;;;;;;;;;;;;;26.36;45.43;100995.81;5048113;28;1386;-70
2021/07/11 00:22:40;;;;;;;;;;;;;;;26.38;45.53;100983.22;5048562;28;1923;-71
2021/07/11 00:25:26;;;;;;;;;;;;;;;26.39;46.29;100989.38;5048650;28;695;-72
2021/07/11 00:28:11;;;;;;;;;;;;;;;26.39;46.46;100986.69;5047101;28;1350;-71
2021/07/11 00:30:59;;;;;;;;;;;;;;;26.35;46.44;100983.47;5047281;28;1044;-72
2021/07/11 00:33:47;;;;;;;;;;;;;;;26.36;46.83;100979.81;5047043;28;1338;-72
2021/07/11 00:36:32;;;;;;;;;;;;;;;26.36;47.46;100982.47;5048349;28;1044;-71
2021/07/11 00:39:19;;;;;;;;;;;;;;;26.35;47.76;128066.44;5048184;28;1275;-72
2021/07/11 00:42:05;;;;;;;;;;;;;;;26.35;48.48;100988.81;5048186;28;1975;-71
2021/07/11 00:44:50;;;;;;;;;;;;;;;26.35;49.32;100990.63;5048162;28;1362;-72
2021/07/11 00:47:39;;;;;;;;;;;;;;;26.32;50.04;100994.41;5048424;28;1022;-73
2021/07/11 00:50:24;;;;;;;;;;;;;;;26.32;50.99;100997.09;5048323;28;824;-72
2021/07/11 00:53:10;;;;;;;;;;;;;;;26.32;51.06;100989.06;5047989;28;1283;-73
2021/07/11 00:55:57;;;;;;;;;;;;;;;26.34;51.47;100991.59;5047053;28;1071;-73
2021/07/11 00:58:43;;;;;;;;;;;;;;;26.37;51.75;100989.50;5047971;28;1214;-72
2021/07/11 01:01:40;;;;;;;;;;;;;;;26.32;51.88;100991.75;5048184;28;1902;-72
2021/07/11 01:04:38;;;;;;;;;;;;;;;26.26;52.73;100989.59;5048046;28;1300;-73
2021/07/11 01:07:29;;;;;;;;;;;;;;;26.29;52.81;100984.00;5048173;28;1045;-70
2021/07/11 01:10:18;;;;;;;;;;;;;;;26.29;52.29;100984.00;5046762;28;644;-70
2021/07/11 01:13:05;;;;;;;;;;;;;;;26.30;52.99;100985.66;5048117;28;1284;-70
2021/07/11 01:15:52;;;;;;;;;;;;;;;26.30;52.66;100983.00;5046830;28;1057;-71
2021/07/11 01:18:38;;;;;;;;;;;;;;;26.29;53.47;100983.13;5047642;28;1312;-70
2021/07/11 01:21:24;;;;;;;;;;;;;;;26.28;53.31;100987.63;5048281;28;1898;-70
2021/07/11 01:24:19;;;;;;;;;;;;;;;26.25;54.14;100987.88;5047718;28;1313;-70
2021/07/11 01:27:04;;;;;;;;;;;;;;;26.30;54.23;100992.81;5047993;28;1045;-70
2021/07/11 01:29:50;;;;;;;;;;;;;;;26.29;54.20;100989.34;5046441;28;1346;-70
2021/07/11 01:32:36;;;;;;;;;;;;;;;26.32;54.12;100983.72;5047546;28;911;-70
2021/07/11 01:35:22;;;;;;;;;;;;;;;26.27;54.21;100988.59;5047681;28;655;-70
2021/07/11 01:38:08;;;;;;;;;;;;;;;26.24;54.01;100991.53;5047363;28;1273;-70
2021/07/11 01:40:53;;;;;;;;;;;;;;;26.23;54.81;100994.34;5047494;28;1111;-71
2021/07/11 01:43:40;;;;;;;;;;;;;;;26.21;54.33;100983.78;5047613;28;1402;-70
2021/07/11 01:46:25;;;;;;;;;;;;;;;26.21;54.68;100997.13;5047298;28;1015;-70
2021/07/11 01:49:12;;;;;;;;;;;;;;;26.18;54.88;101000.06;5047450;28;1281;-71
2021/07/11 01:51:57;;;;;;;;;;;;;;;26.17;54.60;100995.72;5046129;28;1627;-71
2021/07/11 01:54:42;;;;;;;;;;;;;;;26.20;55.35;100991.94;5051090;28;1276;-72
2021/07/11 01:57:28;;;;;;;;;;;;;;;26.18;55.94;100992.03;5051451;28;1091;-71
2021/07/11 02:00:14;;;;;;;;;;;;;;;26.16;55.71;100990.50;5051271;28;621;-71
2021/07/11 02:03:00;;;;;;;;;;;;;;;26.16;55.77;100994.00;5049812;28;1906;-71
2021/07/11 02:05:46;;;;;;;;;;;;;;;26.17;55.63;100998.38;5051015;28;1159;-70
2021/07/11 02:08:31;;;;;;;;;;;;;;;26.15;55.94;100988.75;5049626;28;1380;-70
2021/07/11 02:11:16;;;;;;;;;;;;;;;26.13;56.90;100999.56;5049789;28;955;-70
2021/07/11 02:14:14;;;;;;;;;;;;;;;26.08;56.70;100994.59;5051083;28;1371;-71
2021/07/11 02:17:11;;;;;;;;;;;;;;;26.08;56.88;100985.78;5050682;28;1107;-70
2021/07/11 02:20:00;;;;;;;;;;;;;;;26.11;56.69;100982.84;5050715;28;1362;-70
2021/07/11 02:22:47;;;;;;;;;;;;;;;26.15;57.35;100991.41;5049454;28;1905;-70
2021/07/11 02:25:32;;;;;;;;;;;;;;;26.13;56.45;100988.91;5049421;28;712;-71
2021/07/11 02:28:18;;;;;;;;;;;;;;;26.11;58.60;100985.50;5063447;28;1378;-70
2021/07/11 02:31:10;;;;;;;;;;;;;;;26.12;57.11;100986.34;5050659;28;1047;-71
2021/07/11 02:33:56;;;;;;;;;;;;;;;26.14;58.46;100984.41;5050471;28;1303;-71
2021/07/11 02:36:51;;;;;;;;;;;;;;;26.13;58.69;100975.53;5050385;28;1083;-71
2021/07/11 02:39:41;;;;;;;;;;;;;;;26.13;59.11;100983.56;5050567;28;1255;-71
2021/07/11 02:42:27;;;;;;;;;;;;;;;26.09;59.58;100976.78;5050470;28;1938;-71
2021/07/11 02:45:12;;;;;;;;;;;;;;;26.07;59.67;100979.59;5050400;28;632;-72
2021/07/11 02:47:58;;;;;;;;;;;;;;;25.98;59.73;100964.34;5050484;28;1346;-72
2021/07/11 02:50:47;;;;;;;;;;;;;;;26.06;60.94;100974.34;5050385;28;1394;-70
2021/07/11 02:53:33;;;;;;;;;;;;;;;26.08;60.22;100978.59;5050442;28;1293;-71
2021/07/11 02:56:20;;;;;;;;;;;;;;;26.09;61.62;100976.78;5050422;28;1068;-71
2021/07/11 02:59:09;;;;;;;;;;;;;;;26.10;59.86;100975.81;5050282;28;1326;-70
2021/07/11 03:01:54;;;;;;;;;;;;;;;26.07;61.60;100976.91;5050231;28;1902;-71
2021/07/11 03:04:41;;;;;;;;;;;;;;;26.04;60.92;100969.16;5048754;28;1280;-71
2021/07/11 03:07:27;;;;;;;;;;;;;;;26.11;61.96;100969.50;5050208;28;1112;-71
2021/07/11 03:10:13;;;;;;;;;;;;;;;26.13;62.30;100967.53;5049773;28;655;-71
2021/07/11 03:13:00;;;;;;;;;;;;;;;26.08;61.16;100970.56;5049528;28;1288;-72
2021/07/11 03:15:45;;;;;;;;;;;;;;;26.08;60.42;100964.41;5049917;28;1051;-71
2021/07/11 03:18:34;;;;;;;;;;;;;;;26.06;61.26;100977.03;5049355;28;1234;-71
2021/07/11 03:21:21;;;;;;;;;;;;;;;26.04;58.89;100973.66;5062321;28;1144;-71
2021/07/11 03:24:06;;;;;;;;;;;;;;;26.03;59.82;100972.81;5049290;28;1282;-71
2021/07/11 03:26:53;;;;;;;;;;;;;;;25.97;58.87;100977.81;5049710;28;1143;-71
2021/07/11 03:29:40;;;;;;;;;;;;;;;25.94;57.49;100978.91;5049232;28;1266;-71
2021/07/11 03:32:24;;;;;;;;;;;;;;;25.95;57.28;100974.41;5049066;28;956;-72
2021/07/11 03:35:11;;;;;;;;;;;;;;;25.90;57.38;100980.13;5049441;28;805;-71
2021/07/11 03:37:59;;;;;;;;;;;;;;;25.90;56.55;100976.63;5049520;28;1274;-72
2021/07/11 03:40:44;;;;;;;;;;;;;;;25.87;57.18;100982.22;5049061;28;1086;-72
2021/07/11 03:43:33;;;;;;;;;;;;;;;25.83;56.28;100976.31;5048868;28;1961;-74
2021/07/11 03:46:19;;;;;;;;;;;;;;;25.85;56.46;100982.34;5048088;28;1058;-71
2021/07/11 03:49:09;;;;;;;;;;;;;;;25.83;56.38;100975.44;5047580;28;1273;-71
2021/07/11 03:51:57;;;;;;;;;;;;;;;25.86;57.07;100986.72;5047845;28;1650;-71
2021/07/11 03:54:44;;;;;;;;;;;;;;;25.85;56.57;100977.00;5048938;28;1301;-72
2021/07/11 03:57:31;;;;;;;;;;;;;;;25.86;57.82;100980.53;5049032;28;981;-72
2021/07/11 04:00:18;;;;;;;;;;;;;;;25.85;56.87;100978.81;5049058;28;702;-71
2021/07/11 04:03:04;;;;;;;;;;;;;;;25.84;57.32;100982.50;5048633;28;2017;-71
2021/07/11 04:05:50;;;;;;;;;;;;;;;25.85;58.00;100977.00;5048745;28;1133;-72
2021/07/11 04:08:36;;;;;;;;;;;;;;;25.83;57.55;100975.44;5048976;28;1373;-72
2021/07/11 04:11:22;;;;;;;;;;;;;;;25.82;58.33;100973.75;5061790;28;1212;-72
2021/07/11 04:14:08;;;;;;;;;;;;;;;25.83;58.24;100976.31;5048906;28;1369;-72
2021/07/11 04:16:59;;;;;;;;;;;;;;;25.81;59.19;100972.03;5048762;28;1193;-70
2021/07/11 04:19:45;;;;;;;;;;;;;;;25.81;59.49;100977.38;5049024;28;1295;-71
2021/07/11 04:22:31;;;;;;;;;;;;;;;25.84;58.86;100977.16;5048749;28;1902;-73
2021/07/11 04:25:18;;;;;;;;;;;;;;;25.82;59.10;100977.25;5048379;28;743;-73
2021/07/11 04:28:04;;;;;;;;;;;;;;;25.82;59.39;100979.06;5048398;28;1314;-71
2021/07/11 04:30:51;;;;;;;;;;;;;;;25.81;60.12;100975.56;5048366;28;1146;-72
2021/07/11 04:33:37;;;;;;;;;;;;;;;25.82;59.90;100984.41;5048457;28;1278;-73
2021/07/11 04:36:22;;;;;;;;;;;;;;;25.88;60.68;100982.09;5048228;28;1182;-72
2021/07/11 04:39:08;;;;;;;;;;;;;;;25.88;61.31;100978.56;5048463;28;1304;-73
2021/07/11 04:41:54;;;;;;;;;;;;;;;25.87;60.74;100976.91;5048593;28;1116;-73
2021/07/11 04:44:41;;;;;;;;;;;;;;;25.85;60.56;100978.81;5046892;28;1185;-71
2021/07/11 04:47:27;;;;;;;;;;;;;;;25.87;61.39;100977.72;5048568;28;1043;-70
2021/07/11 04:50:12;;;;;;;;;;;;;;;25.87;62.18;100976.91;5046847;28;651;-72
2021/07/11 04:52:57;;;;;;;;;;;;;;;25.84;62.71;100977.16;5047838;28;1619;-73
2021/07/11 04:55:44;;;;;;;;;;;;;;;25.84;60.89;100982.50;5048378;28;1135;-72
2021/07/11 04:58:29;;;;;;;;;;;;;;;25.81;61.12;100983.56;5047988;28;1228;-72
2021/07/11 05:01:14;;;;;;;;;;;;;;;25.79;61.75;100982.00;5047046;28;1037;-72
2021/07/11 05:03:59;;;;;;;;;;;;;;;25.85;62.22;100997.50;5047869;28;1963;-73
2021/07/11 05:06:45;;;;;;;;;;;;;;;25.84;61.37;100990.50;5048260;28;1038;-72
2021/07/11 05:09:30;;;;;;;;;;;;;;;25.83;62.79;100994.97;5048154;28;1279;-72
2021/07/11 05:12:16;;;;;;;;;;;;;;;25.84;62.20;100990.50;5048232;28;1028;-71
2021/07/11 05:15:02;;;;;;;;;;;;;;;25.88;63.13;101005.25;5048155;28;1383;-72
2021/07/11 05:17:47;;;;;;;;;;;;;;;25.87;62.34;101003.59;5048223;28;1321;-72
2021/07/11 05:20:32;;;;;;;;;;;;;;;25.77;63.23;101007.97;5047907;28;710;-72
2021/07/11 05:23:18;;;;;;;;;;;;;;;25.83;63.24;101007.47;5047572;28;1898;-72
2021/07/11 05:26:03;;;;;;;;;;;;;;;25.87;63.22;101008.91;5047522;28;946;-72
2021/07/11 05:28:48;;;;;;;;;;;;;;;25.82;63.02;101009.28;5049437;28;1338;-72
2021/07/11 05:31:33;;;;;;;;;;;;;;;25.87;63.02;101014.25;5049278;28;1511;-72
2021/07/11 05:34:19;;;;;;;;;;;;;;;25.91;63.37;101015.69;5050600;28;1369;-72
2021/07/11 05:37:04;;;;;;;;;;;;;;;25.84;63.26;101009.19;5040227;28;1115;-71
2021/07/11 05:39:50;;;;;;;;;;;;;;;25.92;62.61;101017.38;5031174;28;1313;-71
2021/07/11 05:42:35;;;;;;;;;;;;;;;25.87;62.36;101024.94;5055086;28;1910;-71
2021/07/11 05:45:21;;;;;;;;;;;;;;;25.95;63.88;101020.66;5051396;28;675;-71
2021/07/11 05:48:06;;;;;;;;;;;;;;;25.94;63.54;101020.75;5051215;28;1330;-69
2021/07/11 05:50:52;;;;;;;;;;;;;;;25.87;64.15;101014.25;5051024;28;1492;-71
2021/07/11 05:53:37;;;;;;;;;;;;;;;25.89;63.74;101022.97;5037764;28;1314;-70
2021/07/11 05:56:22;;;;;;;;;;;;;;;25.93;63.72;101019.91;5031181;28;1091;-69
2021/07/11 05:59:08;;;;;;;;;;;;;;;25.95;62.73;101027.81;5031033;28;1300;-69
2021/07/11 06:01:53;;;;;;;;;;;;;;;25.97;63.82;101025.84;5030934;28;1090;-70
2021/07/11 06:04:39;;;;;;;;;;;;;;;25.90;64.38;101020.16;5030716;28;1918;-69
2021/07/11 06:07:24;;;;;;;;;;;;;;;26.01;64.37;101029.97;5062304;28;1172;-69
2021/07/11 06:10:10;;;;;;;;;;;;;;;25.98;64.53;101035.56;5049104;28;1119;-68
2021/07/11 06:12:55;;;;;;;;;;;;;;;25.99;64.77;101030.06;5049256;28;1295;-68
2021/07/11 06:15:40;;;;;;;;;;;;;;;26.08;64.42;101041.84;5047769;28;1221;-68
2021/07/11 06:18:25;;;;;;;;;;;;;;;26.04;64.47;101043.06;5048102;28;1395;-68
2021/07/11 06:21:11;;;;;;;;;;;;;;;26.00;63.35;101047.78;5048860;28;1140;-69
2021/07/11 06:23:57;;;;;;;;;;;;;;;26.02;64.67;101050.34;5046825;28;1898;-68
2021/07/11 06:26:43;;;;;;;;;;;;;;;26.00;64.85;101044.28;5047554;28;1123;-71
2021/07/11 06:29:28;;;;;;;;;;;;;;;26.07;64.35;101038.31;5048056;28;1309;-72
2021/07/11 06:32:13;;;;;;;;;;;;;;;26.02;63.93;101034.34;5049158;28;1040;-72
2021/07/11 06:34:59;;;;;;;;;;;;;;;26.01;64.46;101033.47;5046815;28;1410;-71
2021/07/11 06:37:45;;;;;;;;;;;;;;;26.02;64.82;101037.81;5047798;28;1247;-70
2021/07/11 06:40:31;;;;;;;;;;;;;;;26.04;64.47;101032.38;5048139;28;1093;-71
2021/07/11 06:43:16;;;;;;;;;;;;;;;26.04;64.03;101041.25;5048996;28;1902;-68
2021/07/11 06:46:01;;;;;;;;;;;;;;;26.13;64.46;101042.28;5047336;28;1065;-71
2021/07/11 06:48:46;;;;;;;;;;;;;;;26.14;64.44;101041.31;5047464;28;1313;-72
2021/07/11 06:51:32;;;;;;;;;;;;;;;26.15;64.08;101043.03;5055541;28;1461;-72
2021/07/11 06:54:17;;;;;;;;;;;;;;;26.20;62.91;101042.66;5046287;28;1292;-71
2021/07/11 06:57:03;;;;;;;;;;;;;;;26.21;63.45;101039.84;5047242;28;1083;-70
2021/07/11 06:59:48;;;;;;;;;;;;;;;26.23;64.23;101035.25;5047441;28;1301;-70
2021/07/11 07:02:33;;;;;;;;;;;;;;;26.25;63.89;101040.44;5048256;28;1914;-69
2021/07/11 07:05:20;;;;;;;;;;;;;;;26.23;62.86;101043.25;5046055;28;1075;-68
2021/07/11 07:08:05;;;;;;;;;;;;;;;26.27;63.16;101043.81;5042995;28;1436;-69
2021/07/11 07:10:51;;;;;;;;;;;;;;;26.29;62.57;101049.91;5047390;28;1128;-67
2021/07/11 07:13:37;;;;;;;;;;;;;;;26.29;62.59;101042.75;5055322;28;1315;-70
2021/07/11 07:16:22;;;;;;;;;;;;;;;26.30;61.19;101039.06;5040427;28;1067;-70
2021/07/11 07:19:08;;;;;;;;;;;;;;;26.31;61.14;101050.59;5046876;28;1320;-70
2021/07/11 07:21:53;;;;;;;;;;;;;;;26.31;60.40;101051.47;5048055;28;1116;-68
2021/07/11 07:24:38;;;;;;;;;;;;;;;26.33;62.15;101049.50;5044305;28;1911;-69
2021/07/11 07:27:23;;;;;;;;;;;;;;;26.33;62.62;101044.16;5045417;28;1165;-70
2021/07/11 07:30:10;;;;;;;;;;;;;;;26.34;60.58;101045.88;5047328;28;1142;-72
2021/07/11 07:32:55;;;;;;;;;;;;;;;26.36;59.45;101051.06;5055002;28;1366;-69
2021/07/11 07:35:40;;;;;;;;;;;;;;;26.37;61.45;101056.28;5042725;28;1302;-70
2021/07/11 07:38:26;;;;;;;;;;;;;;;26.35;59.13;101054.72;5046817;28;1339;-70
2021/07/11 07:41:11;;;;;;;;;;;;;;;26.36;59.69;101059.06;5045897;28;1123;-73
2021/07/11 07:43:57;;;;;;;;;;;;;;;26.36;60.00;101057.25;5047642;28;1903;-72
2021/07/11 07:46:42;;;;;;;;;;;;;;;26.37;61.62;101061.63;5045788;28;1124;-74
2021/07/11 07:49:28;;;;;;;;;;;;;;;26.39;59.46;101059.66;5044219;28;1327;-73
2021/07/11 07:52:13;;;;;;;;;;;;;;;26.40;59.66;101064.03;5044021;28;1399;-72
2021/07/11 07:55:01;;;;;;;;;;;;;;;26.41;59.18;101065.75;5044970;28;1265;-74
2021/07/11 07:57:46;;;;;;;;;;;;;;;26.41;59.01;101063.06;5042857;28;1309;-71
2021/07/11 08:00:31;;;;;;;;;;;;;;;26.41;60.33;101065.75;5041939;28;1028;-72
2021/07/11 08:03:17;;;;;;;;;;;;;;;26.41;58.53;101068.41;5046122;28;1975;-72
2021/07/11 08:06:02;;;;;;;;;;;;;;;26.42;59.14;101069.22;5050992;28;1082;-68
2021/07/11 08:08:47;;;;;;;;;;;;;;;26.42;58.99;101062.06;5059533;28;1391;-71
2021/07/11 08:11:33;;;;;;;;;;;;;;;26.44;59.21;101062.81;5045112;28;1259;-70
2021/07/11 08:14:19;;;;;;;;;;;;;;;26.44;59.26;101067.31;5044717;28;1410;-71
2021/07/11 08:17:04;;;;;;;;;;;;;;;26.45;59.22;101071.66;5043476;28;1329;-66
2021/07/11 08:19:50;;;;;;;;;;;;;;;26.47;59.90;101067.03;5042573;28;1407;-66
2021/07/11 08:22:35;;;;;;;;;;;;;;;26.47;58.65;101062.56;5045786;28;1052;-69
2021/07/11 08:25:21;;;;;;;;;;;;;;;26.47;59.66;101062.56;5042431;28;1231;-67
2021/07/11 08:28:07;;;;;;;;;;;;;;;26.50;60.21;101062.28;5046138;28;1350;-68
2021/07/11 08:30:52;;;;;;;;;;;;;;;26.49;59.51;101075.75;5044165;28;1206;-69
2021/07/11 08:33:37;;;;;;;;;;;;;;;26.47;59.49;101067.03;5041471;28;1333;-68
2021/07/11 08:36:23;;;;;;;;;;;;;;;26.48;59.48;101064.22;5046874;28;1090;-68
2021/07/11 08:39:08;;;;;;;;;;;;;;;26.52;60.58;101063.00;5045803;28;1394;-67
2021/07/11 08:41:54;;;;;;;;;;;;;;;26.49;58.60;101060.59;5045602;28;1056;-69
2021/07/11 08:44:40;;;;;;;;;;;;;;;26.51;58.78;101058.63;5046315;28;1906;-67
2021/07/11 08:47:25;;;;;;;;;;;;;;;26.53;59.59;101054.03;5044863;28;1160;-73
2021/07/11 08:50:12;;;;;;;;;;;;;;;26.54;59.02;101052.16;5045795;28;1072;-68
2021/07/11 08:52:58;;;;;;;;;;;;;;;26.59;59.65;101056.16;5045852;28;1407;-66
2021/07/11 08:55:43;;;;;;;;;;;;;;;26.59;58.29;101048.16;5044906;28;1157;-69
2021/07/11 08:58:29;;;;;;;;;;;;;;;26.62;58.31;101055.06;5045701;28;1260;-70
2021/07/11 09:01:14;;;;;;;;;;;;;;;26.63;57.69;101046.03;5046062;28;1083;-69
2021/07/11 09:04:06;;;;;;;;;;;;;;;26.65;57.84;101049.44;5046335;28;1991;-73
2021/07/11 09:06:54;;;;;;;;;;;;;;;26.67;57.95;101054.66;5050258;28;1241;-70
2021/07/11 09:09:39;;;;;;;;;;;;;;;26.66;57.05;101052.97;5054030;28;1319;-67
2021/07/11 09:12:25;;;;;;;;;;;;;;;26.63;57.22;101052.25;5047344;28;1127;-65
2021/07/11 09:15:27;;;;;;;;;;;;;;;26.65;57.21;101053.94;5049095;28;1198;-66
2021/07/11 09:18:26;;;;;;;;;;;;;;;26.68;57.25;101059.88;5048342;28;1414;-68
2021/07/11 09:21:11;;;;;;;;;;;;;;;26.72;56.39;101057.78;5050297;28;1079;-68
2021/07/11 09:23:56;;;;;;;;;;;;;;;26.66;56.59;101058.31;5048235;28;1921;-67
2021/07/11 09:26:44;;;;;;;;;;;;;;;26.63;56.45;101046.03;5046392;28;1095;-67
2021/07/11 09:29:30;;;;;;;;;;;;;;;26.63;56.72;101052.25;5048762;28;1409;-68
2021/07/11 09:32:31;;;;;;;;;;;;;;;26.62;56.51;101039.03;5049412;28;1123;-68
2021/07/11 09:35:18;;;;;;;;;;;;;;;26.60;56.69;101036.47;5049508;28;979;-67
2021/07/11 09:38:03;;;;;;;;;;;;;;;26.61;56.32;101027.50;5047674;28;1378;-67
2021/07/11 09:40:48;;;;;;;;;;;;;;;26.60;56.88;101016.91;5048494;28;1084;-68
2021/07/11 09:43:41;;;;;;;;;;;;;;;26.61;56.80;101019.47;5049158;28;1969;-68
2021/07/11 09:46:28;;;;;;;;;;;;;;;26.61;56.76;101008.78;5048090;28;1140;-68
2021/07/11 09:49:17;;;;;;;;;;;;;;;26.63;56.54;101018.50;5048668;28;1356;-68
2021/07/11 09:52:03;;;;;;;;;;;;;;;26.61;56.82;101015.94;5046550;28;1479;-68
2021/07/11 09:55:17;;;;;;;;;;;;;;;26.62;56.48;101020.31;5048697;28;1319;-68
2021/07/11 09:58:02;;;;;;;;;;;;;;;26.61;56.61;101022.16;5050121;28;1422;-68
2021/07/11 10:00:47;;;;;;;;;;;;;;;26.61;57.05;101018.63;5047894;28;1079;-68
2021/07/11 10:03:33;;;;;;;;;;;;;;;26.61;57.19;101010.59;5048800;28;1975;-68
2021/07/11 10:06:18;;;;;;;;;;;;;;;26.62;57.17;101017.66;5049502;28;1051;-67
2021/07/11 10:09:04;;;;;;;;;;;;;;;26.61;57.77;101016.81;5047258;28;1409;-67
2021/07/11 10:11:49;;;;;;;;;;;;;;;26.61;57.51;101015.94;5048231;28;1108;-68
2021/07/11 10:14:35;;;;;;;;;;;;;;;26.62;57.66;101012.31;5048185;28;1410;-68
2021/07/11 10:17:21;;;;;;;;;;;;;;;26.63;57.84;101013.16;5049397;28;1119;-68
2021/07/11 10:20:06;;;;;;;;;;;;;;;26.63;58.07;101018.50;5043964;28;912;-68
2021/07/11 10:22:55;;;;;;;;;;;;;;;26.63;57.71;101014.84;5047517;28;1236;-68
2021/07/11 10:25:40;;;;;;;;;;;;;;;26.61;57.56;101008.78;5049016;28;1922;-68
2021/07/11 10:28:26;;;;;;;;;;;;;;;26.61;58.11;101016.81;5045332;28;1310;-68
2021/07/11 10:31:22;;;;;;;;;;;;;;;26.60;58.02;101014.25;5047519;28;1134;-68
2021/07/11 10:34:08;;;;;;;;;;;;;;;26.62;58.00;101001.63;5047925;28;1402;-67
2021/07/11 10:36:54;;;;;;;;;;;;;;;26.63;58.41;101003.28;5047890;28;1091;-67
2021/07/11 10:39:39;;;;;;;;;;;;;;;26.63;57.34;101004.16;5048672;28;1330;-67
2021/07/11 10:42:28;;;;;;;;;;;;;;;26.64;57.89;100999.66;5049344;28;1439;-68
2021/07/11 10:45:14;;;;;;;;;;;;;;;26.65;58.44;100997.84;5047462;28;1910;-67
2021/07/11 10:48:04;;;;;;;;;;;;;;;26.63;57.47;100996.13;5048543;28;1296;-67
2021/07/11 10:50:49;;;;;;;;;;;;;;;26.63;57.29;100998.81;5046390;28;1705;-67
2021/07/11 10:53:36;;;;;;;;;;;;;;;26.64;57.12;100988.97;5046813;28;1333;-67
2021/07/11 10:56:21;;;;;;;;;;;;;;;26.65;57.66;100974.63;5048626;28;1113;-67
2021/07/11 10:59:07;;;;;;;;;;;;;;;26.63;57.61;100969.41;5046638;28;1406;-67
2021/07/11 11:01:53;;;;;;;;;;;;;;;26.66;58.10;100970.16;5044326;28;1129;-67
2021/07/11 11:04:38;;;;;;;;;;;;;;;26.66;58.32;100965.63;5047714;28;1930;-67
2021/07/11 11:07:23;;;;;;;;;;;;;;;26.65;58.35;100961.28;5048679;28;1078;-68
2021/07/11 11:10:21;;;;;;;;;;;;;;;26.63;57.90;100972.09;5046202;28;1075;-67
2021/07/11 11:13:09;;;;;;;;;;;;;;;26.65;58.12;100974.63;5045865;28;1388;-68
2021/07/11 11:15:54;;;;;;;;;;;;;;;26.66;58.50;100997.69;5046844;28;1047;-67
2021/07/11 11:18:40;;;;;;;;;;;;;;;26.67;58.65;100987.84;5047439;28;1307;-67
2021/07/11 11:21:26;;;;;;;;;;;;;;;26.67;58.96;100988.69;5055572;28;1278;-67
2021/07/11 11:24:11;;;;;;;;;;;;;;;26.67;58.16;100977.16;5045989;28;1914;-67
2021/07/11 11:26:56;;;;;;;;;;;;;;;26.67;57.95;100971.81;5046302;28;1077;-68
2021/07/11 11:29:42;;;;;;;;;;;;;;;26.65;58.62;100953.25;5047319;28;1272;-68
2021/07/11 11:32:27;;;;;;;;;;;;;;;26.66;57.89;100952.25;5045451;28;1112;-67
2021/07/11 11:35:15;;;;;;;;;;;;;;;26.67;58.14;100934.41;5044917;28;1052;-67
2021/07/11 11:38:03;;;;;;;;;;;;;;;26.68;57.98;100947.66;5047147;28;1239;-67
2021/07/11 11:40:48;;;;;;;;;;;;;;;26.68;57.94;100936.97;5045095;28;1114;-67
2021/07/11 11:43:33;;;;;;;;;;;;;;;26.68;57.92;100949.47;5045648;28;1307;-67
2021/07/11 11:46:22;;;;;;;;;;;;;;;26.68;57.81;100944.97;5046425;28;1143;-67
2021/07/11 11:49:10;;;;;;;;;;;;;;;26.68;57.32;100920.94;5044891;28;1333;-67
2021/07/11 11:52:00;;;;;;;;;;;;;;;26.69;57.64;100916.44;5045784;28;1123;-67
2021/07/11 11:54:46;;;;;;;;;;;;;;;26.70;57.73;100921.63;5047094;28;1294;-67
2021/07/11 11:57:33;;;;;;;;;;;;;;;26.69;57.68;100919.94;5043197;28;1144;-68
2021/07/11 12:00:21;;;;;;;;;;;;;;;26.73;58.57;100920.50;5042136;28;1206;-69
2021/07/11 12:03:07;;;;;;;;;;;;;;;26.73;58.38;100900.00;5043242;28;1312;-67
2021/07/11 12:05:53;;;;;;;;;;;;;;;26.74;57.75;100924.88;5044515;28;1901;-66
2021/07/11 12:08:43;;;;;;;;;;;;;;;26.71;57.57;100931.34;5045807;28;1386;-67
2021/07/11 12:11:28;;;;;;;;;;;;;;;26.70;58.15;100907.41;5043323;28;1066;-68
2021/07/11 12:14:17;;;;;;;;;;;;;;;26.77;58.46;100897.91;5045461;28;1367;-67
2021/07/11 12:17:03;;;;;;;;;;;;;;;26.80;58.15;100903.00;5045147;28;1079;-68
2021/07/11 12:19:53;;;;;;;;;;;;;;;26.79;58.10;100910.13;5046896;28;1393;-69
2021/07/11 12:22:42;;;;;;;;;;;;;;;26.85;57.82;100939.03;5043465;28;1154;-67
2021/07/11 12:25:33;;;;;;;;;;;;;;;26.85;57.87;100949.72;5044611;28;1969;-68
2021/07/11 12:28:21;;;;;;;;;;;;;;;26.84;58.20;100920.47;5045620;28;1393;-69
2021/07/11 12:31:06;;;;;;;;;;;;;;;26.86;57.58;100913.16;5046598;28;1132;-67
2021/07/11 12:33:59;;;;;;;;;;;;;;;26.84;57.98;100904.44;5044359;28;1319;-68
2021/07/11 12:36:52;;;;;;;;;;;;;;;26.87;58.56;100872.09;5046312;28;1114;-69
2021/07/11 12:39:49;;;;;;;;;;;;;;;26.93;58.24;100867.00;5045891;28;1292;-68
2021/07/11 12:42:35;;;;;;;;;;;;;;;26.95;58.42;100874.91;5043963;28;1093;-69
2021/07/11 12:45:20;;;;;;;;;;;;;;;26.92;58.35;100875.19;5044590;28;1911;-69
2021/07/11 12:48:05;;;;;;;;;;;;;;;26.97;58.53;100889.81;5044529;28;1276;-67
2021/07/11 12:50:51;;;;;;;;;;;;;;;26.91;57.85;100921.59;5043671;28;1348;-69
2021/07/11 12:53:36;;;;;;;;;;;;;;;26.84;56.30;100915.94;5044540;28;1292;-70
2021/07/11 12:56:28;;;;;;;;;;;;;;;26.75;56.30;100902.53;5045718;28;1232;-69
2021/07/11 12:59:14;;;;;;;;;;;;;;;26.68;55.54;100912.06;5043998;28;1371;-67
2021/07/11 13:02:03;;;;;;;;;;;;;;;26.58;55.19;100894.16;5045202;28;1131;-70
2021/07/11 13:04:53;;;;;;;;;;;;;;;26.57;54.88;100902.31;5045648;28;1914;-72
2021/07/11 13:07:39;;;;;;;;;;;;;;;26.55;54.97;100880.22;5043587;28;1136;-73
2021/07/11 13:10:24;;;;;;;;;;;;;;;26.50;54.96;100879.81;5041121;28;971;-68
2021/07/11 13:13:10;;;;;;;;;;;;;;;26.57;54.74;100886.28;5045767;28;1244;-73
2021/07/11 13:15:56;;;;;;;;;;;;;;;26.57;54.55;100896.97;5047404;28;1083;-72
2021/07/11 13:18:41;;;;;;;;;;;;;;;26.57;54.26;100887.13;5044868;28;1278;-69
2021/07/11 13:21:26;;;;;;;;;;;;;;;26.49;53.68;100891.44;5045839;28;1095;-69
2021/07/11 13:24:13;;;;;;;;;;;;;;;26.36;53.07;100889.00;5046649;28;1906;-67
2021/07/11 13:26:58;;;;;;;;;;;;;;;26.23;52.74;100895.56;5046910;28;1114;-67
2021/07/11 13:29:43;;;;;;;;;;;;;;;26.24;52.24;100887.38;5045202;28;1262;-69
2021/07/11 13:32:28;;;;;;;;;;;;;;;26.25;51.73;100886.41;5050521;28;1354;-68
2021/07/11 13:35:14;;;;;;;;;;;;;;;26.18;51.14;100893.25;5046997;28;1068;-70
2021/07/11 13:37:59;;;;;;;;;;;;;;;26.13;51.77;100876.75;5045368;28;1215;-69
2021/07/11 13:40:44;;;;;;;;;;;;;;;26.15;51.56;100863.28;5045762;28;1332;-69
2021/07/11 13:43:31;;;;;;;;;;;;;;;26.12;51.19;100859.03;5046196;28;1366;-68
2021/07/11 13:46:16;;;;;;;;;;;;;;;26.08;51.49;100857.63;5045363;28;1941;-70
2021/07/11 13:49:01;;;;;;;;;;;;;;;26.12;51.37;100847.53;5046590;28;1406;-69
2021/07/11 13:51:47;;;;;;;;;;;;;;;26.12;51.42;100845.69;5048676;28;1381;-68
2021/07/11 13:54:32;;;;;;;;;;;;;;;26.14;51.48;100845.59;5049990;28;1428;-68
2021/07/11 13:57:17;;;;;;;;;;;;;;;26.10;50.95;100845.00;5051150;28;1162;-68
2021/07/11 14:00:07;;;;;;;;;;;;;;;26.06;50.67;100836.41;5048542;28;1387;-68
2021/07/11 14:02:52;;;;;;;;;;;;;;;26.08;50.47;100847.78;5050324;28;1248;-68
2021/07/11 14:05:38;;;;;;;;;;;;;;;26.07;50.28;100848.78;5047964;28;1969;-69
2021/07/11 14:08:23;;;;;;;;;;;;;;;26.02;50.86;100834.97;5048305;28;1288;-68
2021/07/11 14:11:09;;;;;;;;;;;;;;;26.01;50.76;100838.63;5049094;28;1138;-70
2021/07/11 14:13:55;;;;;;;;;;;;;;;26.03;50.48;100838.47;5048671;28;1372;-68
2021/07/11 14:16:40;;;;;;;;;;;;;;;26.02;49.80;100831.47;5047855;28;1201;-68
2021/07/11 14:19:26;;;;;;;;;;;;;;;26.02;49.69;100832.28;5048611;28;1327;-67
2021/07/11 14:22:13;;;;;;;;;;;;;;;26.05;50.27;100825.88;5049267;28;1090;-69
2021/07/11 14:24:58;;;;;;;;;;;;;;;26.01;50.66;100813.75;5049851;28;1910;-67
2021/07/11 14:27:44;;;;;;;;;;;;;;;25.96;52.89;100816.00;5047866;28;1553;-71